createdAt,value
2018-09-03T00:00:27.161Z,0.00
2018-09-03T00:01:27.145Z,0.00
2018-09-03T00:02:27.119Z,0.00
2018-09-03T00:03:27.102Z,0.00
2018-09-03T00:04:27.078Z,0.00
2018-09-03T00:05:27.058Z,0.00
2018-09-03T00:06:27.042Z,0.00
2018-09-03T00:07:27.017Z,0.00
2018-09-03T00:08:26.996Z,0.00
2018-09-03T00:09:26.975Z,0.00
2018-09-03T00:10:26.952Z,0.00
2018-09-03T00:11:26.934Z,0.00
2018-09-03T00:12:26.912Z,0.00
2018-09-03T00:13:26.892Z,0.00
2018-09-03T00:14:26.872Z,0.00
2018-09-03T00:15:26.849Z,0.00
2018-09-03T00:16:26.827Z,0.00
2018-09-03T00:17:26.806Z,0.00
2018-09-03T00:18:26.785Z,0.00
2018-09-03T00:19:26.765Z,0.00
2018-09-03T00:20:26.743Z,0.00
2018-09-03T00:21:26.724Z,0.00
2018-09-03T00:22:26.703Z,0.00
2018-09-03T00:23:26.682Z,0.00
2018-09-03T00:24:26.661Z,0.00
2018-09-03T00:25:26.642Z,0.00
2018-09-03T00:26:26.619Z,0.00
2018-09-03T00:27:26.600Z,0.00
2018-09-03T00:28:26.579Z,0.00
2018-09-03T00:29:26.558Z,0.00
2018-09-03T00:30:26.536Z,0.00
2018-09-03T00:31:26.519Z,0.00
2018-09-03T00:32:26.495Z,0.00
2018-09-03T00:33:26.474Z,0.00
2018-09-03T00:34:26.453Z,0.00
2018-09-03T00:35:26.432Z,0.00
2018-09-03T00:36:26.412Z,0.00
2018-09-03T00:37:26.391Z,0.00
2018-09-03T00:38:26.370Z,0.00
2018-09-03T00:39:26.351Z,0.00
2018-09-03T00:40:26.431Z,0.00
2018-09-03T00:41:26.309Z,0.00
2018-09-03T00:42:26.288Z,0.00
2018-09-03T00:43:26.270Z,0.00
2018-09-03T00:44:26.248Z,0.00
2018-09-03T00:45:26.228Z,0.00
2018-09-03T00:46:26.207Z,0.00
2018-09-03T00:47:26.186Z,0.00
2018-09-03T00:48:26.167Z,0.00
2018-09-03T00:49:26.145Z,0.00
2018-09-03T00:50:26.124Z,0.00
2018-09-03T00:51:26.102Z,0.00
2018-09-03T00:52:26.082Z,0.00
2018-09-03T00:53:26.062Z,0.00
2018-09-03T00:54:26.040Z,0.00
2018-09-03T00:55:26.023Z,0.00
2018-09-03T00:56:26.750Z,0.00
2018-09-03T00:57:25.979Z,0.00
2018-09-03T00:58:25.959Z,0.00
2018-09-03T00:59:25.938Z,0.00
2018-09-03T01:00:25.919Z,0.00
2018-09-03T01:01:25.905Z,0.00
2018-09-03T01:02:25.875Z,0.00
2018-09-03T01:03:25.854Z,0.00
2018-09-03T01:04:25.835Z,0.00
2018-09-03T01:05:25.815Z,0.00
2018-09-03T01:06:25.793Z,0.00
2018-09-03T01:07:25.775Z,0.00
2018-09-03T01:08:25.753Z,0.00
2018-09-03T01:09:25.734Z,0.00
2018-09-03T01:10:25.711Z,0.00
2018-09-03T01:11:25.690Z,0.00
2018-09-03T01:12:25.673Z,0.00
2018-09-03T01:13:25.650Z,0.00
2018-09-03T01:14:25.650Z,0.00
2018-09-03T01:15:25.607Z,0.00
2018-09-03T01:16:25.586Z,0.00
2018-09-03T01:17:25.567Z,0.00
2018-09-03T01:18:25.545Z,0.00
2018-09-03T01:19:25.524Z,0.00
2018-09-03T01:20:25.503Z,0.00
2018-09-03T01:21:25.482Z,0.00
2018-09-03T01:22:25.461Z,0.00
2018-09-03T01:23:25.440Z,0.00
2018-09-03T01:24:25.436Z,0.00
2018-09-03T01:25:25.400Z,0.00
2018-09-03T01:26:25.377Z,0.00
2018-09-03T01:27:25.356Z,0.00
2018-09-03T01:28:26.087Z,0.00
2018-09-03T01:29:25.363Z,0.00
2018-09-03T01:30:25.294Z,0.00
2018-09-03T01:31:25.274Z,0.00
2018-09-03T01:32:25.252Z,0.00
2018-09-03T01:33:25.233Z,0.00
2018-09-03T01:34:25.211Z,0.00
2018-09-03T01:35:25.189Z,0.00
2018-09-03T01:36:25.169Z,0.00
2018-09-03T01:37:25.148Z,0.00
2018-09-03T01:38:25.127Z,0.00
2018-09-03T01:39:25.106Z,0.00
2018-09-03T01:40:25.085Z,0.00
2018-09-03T01:41:25.065Z,0.00
2018-09-03T01:42:25.043Z,0.00
2018-09-03T01:43:25.022Z,0.00
2018-09-03T01:44:25.001Z,0.00
2018-09-03T01:45:24.982Z,0.00
2018-09-03T01:46:24.958Z,0.00
2018-09-03T01:47:24.941Z,0.00
2018-09-03T01:48:24.918Z,0.00
2018-09-03T01:49:24.896Z,0.00
2018-09-03T01:50:24.875Z,0.00
2018-09-03T01:51:24.854Z,0.00
2018-09-03T01:52:24.833Z,0.00
2018-09-03T01:53:24.813Z,0.00
2018-09-03T01:54:24.792Z,0.00
2018-09-03T01:55:24.770Z,0.00
2018-09-03T01:56:24.751Z,0.00
2018-09-03T01:57:24.731Z,0.00
2018-09-03T01:58:24.710Z,0.00
2018-09-03T01:59:24.688Z,0.00
2018-09-03T02:00:25.419Z,0.00
2018-09-03T02:01:24.646Z,0.00
2018-09-03T02:02:24.624Z,0.00
2018-09-03T02:03:24.604Z,0.00
2018-09-03T02:04:24.584Z,0.00
2018-09-03T02:05:24.563Z,0.00
2018-09-03T02:06:24.541Z,0.00
2018-09-03T02:07:24.521Z,0.00
2018-09-03T02:08:24.500Z,0.00
2018-09-03T02:09:24.480Z,0.00
2018-09-03T02:10:24.458Z,0.00
2018-09-03T02:11:24.439Z,0.00
2018-09-03T02:12:24.417Z,0.00
2018-09-03T02:13:24.398Z,0.00
2018-09-03T02:14:24.377Z,0.00
2018-09-03T02:15:24.354Z,0.00
2018-09-03T02:16:24.334Z,0.00
2018-09-03T02:17:24.321Z,0.00
2018-09-03T02:18:24.292Z,0.00
2018-09-03T02:19:24.272Z,0.00
2018-09-03T02:20:24.251Z,0.00
2018-09-03T02:21:24.232Z,0.00
2018-09-03T02:22:24.209Z,0.00
2018-09-03T02:23:24.189Z,0.00
2018-09-03T02:24:24.169Z,0.00
2018-09-03T02:25:24.149Z,0.00
2018-09-03T02:26:24.128Z,0.00
2018-09-03T02:27:24.107Z,0.00
2018-09-03T02:28:24.088Z,0.00
2018-09-03T02:29:24.067Z,0.00
2018-09-03T02:30:24.045Z,0.00
2018-09-03T02:31:24.025Z,0.00
2018-09-03T02:32:24.008Z,0.00
2018-09-03T02:33:23.984Z,0.00
2018-09-03T02:34:23.963Z,0.00
2018-09-03T02:35:23.943Z,0.00
2018-09-03T02:36:24.674Z,0.00
2018-09-03T02:37:23.903Z,0.00
2018-09-03T02:38:23.881Z,0.00
2018-09-03T02:39:23.865Z,0.00
2018-09-03T02:40:23.843Z,0.00
2018-09-03T02:41:23.819Z,0.00
2018-09-03T02:42:23.800Z,0.00
2018-09-03T02:43:23.779Z,0.00
2018-09-03T02:44:23.758Z,0.00
2018-09-03T02:45:23.743Z,0.00
2018-09-03T02:46:23.717Z,0.00
2018-09-03T02:47:23.699Z,0.00
2018-09-03T02:48:23.677Z,0.00
2018-09-03T02:49:23.656Z,0.00
2018-09-03T02:50:23.634Z,0.00
2018-09-03T02:51:23.613Z,0.00
2018-09-03T02:52:23.594Z,0.00
2018-09-03T02:53:23.578Z,0.00
2018-09-03T02:54:23.551Z,0.00
2018-09-03T02:55:23.530Z,0.00
2018-09-03T02:56:23.510Z,0.00
2018-09-03T02:57:23.491Z,0.00
2018-09-03T02:58:23.469Z,0.00
2018-09-03T02:59:23.448Z,0.00
2018-09-03T03:00:23.432Z,0.00
2018-09-03T03:01:23.411Z,0.00
2018-09-03T03:02:23.390Z,0.00
2018-09-03T03:03:23.367Z,0.00
2018-09-03T03:04:23.345Z,0.00
2018-09-03T03:05:23.325Z,0.00
2018-09-03T03:06:23.304Z,0.00
2018-09-03T03:07:23.283Z,0.00
2018-09-03T03:08:24.763Z,0.00
2018-09-03T03:09:23.241Z,0.00
2018-09-03T03:10:23.220Z,0.00
2018-09-03T03:11:23.200Z,0.00
2018-09-03T03:12:23.180Z,0.00
2018-09-03T03:13:23.162Z,0.00
2018-09-03T03:14:23.137Z,0.00
2018-09-03T03:15:23.118Z,0.00
2018-09-03T03:16:23.098Z,0.00
2018-09-03T03:17:23.077Z,0.00
2018-09-03T03:18:23.055Z,0.00
2018-09-03T03:19:23.035Z,0.00
2018-09-03T03:20:23.014Z,0.00
2018-09-03T03:21:22.994Z,0.00
2018-09-03T03:22:22.973Z,0.00
2018-09-03T03:23:22.952Z,0.00
2018-09-03T03:24:22.932Z,0.00
2018-09-03T03:25:22.912Z,0.00
2018-09-03T03:26:22.891Z,0.00
2018-09-03T03:27:22.872Z,0.00
2018-09-03T03:28:22.850Z,0.00
2018-09-03T03:29:22.830Z,0.00
2018-09-03T03:30:22.810Z,0.00
2018-09-03T03:31:22.788Z,0.00
2018-09-03T03:32:22.768Z,0.00
2018-09-03T03:33:22.748Z,0.00
2018-09-03T03:34:22.725Z,0.00
2018-09-03T03:35:24.206Z,0.00
2018-09-03T03:36:22.686Z,0.00
2018-09-03T03:37:22.666Z,0.00
2018-09-03T03:38:22.643Z,0.00
2018-09-03T03:39:22.623Z,0.00
2018-09-03T03:40:22.604Z,0.00
2018-09-03T03:41:22.582Z,0.00
2018-09-03T03:42:22.564Z,0.00
2018-09-03T03:43:22.550Z,0.00
2018-09-03T03:44:22.521Z,0.00
2018-09-03T03:45:22.500Z,0.00
2018-09-03T03:46:22.479Z,0.00
2018-09-03T03:47:22.459Z,0.00
2018-09-03T03:48:22.440Z,0.00
2018-09-03T03:49:22.418Z,0.00
2018-09-03T03:50:22.398Z,0.00
2018-09-03T03:51:22.378Z,0.00
2018-09-03T03:52:22.357Z,0.00
2018-09-03T03:53:22.340Z,0.00
2018-09-03T03:54:22.315Z,0.00
2018-09-03T03:55:22.313Z,0.00
2018-09-03T03:56:22.276Z,0.00
2018-09-03T03:57:22.254Z,0.00
2018-09-03T03:58:22.237Z,0.00
2018-09-03T03:59:22.213Z,0.00
2018-09-03T04:00:22.192Z,0.00
2018-09-03T04:01:22.172Z,0.00
2018-09-03T04:02:22.151Z,0.00
2018-09-03T04:03:22.131Z,0.00
2018-09-03T04:04:22.111Z,0.00
2018-09-03T04:05:22.091Z,0.00
2018-09-03T04:06:22.069Z,0.00
2018-09-03T04:07:22.053Z,0.00
2018-09-03T04:08:22.033Z,0.00
2018-09-03T04:09:22.010Z,0.00
2018-09-03T04:10:21.988Z,0.00
2018-09-03T04:11:21.969Z,0.00
2018-09-03T04:12:21.948Z,0.00
2018-09-03T04:13:21.927Z,0.00
2018-09-03T04:14:21.905Z,0.00
2018-09-03T04:15:21.885Z,0.00
2018-09-03T04:16:21.865Z,0.00
2018-09-03T04:17:21.846Z,0.00
2018-09-03T04:18:21.825Z,0.00
2018-09-03T04:19:21.803Z,0.00
2018-09-03T04:20:21.783Z,0.00
2018-09-03T04:21:21.766Z,0.00
2018-09-03T04:22:21.743Z,0.00
2018-09-03T04:23:21.802Z,0.00
2018-09-03T04:24:21.704Z,0.00
2018-09-03T04:25:21.683Z,0.00
2018-09-03T04:26:21.660Z,0.00
2018-09-03T04:27:21.639Z,0.00
2018-09-03T04:28:21.620Z,0.00
2018-09-03T04:29:21.599Z,0.00
2018-09-03T04:30:21.577Z,0.00
2018-09-03T04:31:21.558Z,0.00
2018-09-03T04:32:21.537Z,0.00
2018-09-03T04:33:21.520Z,0.00
2018-09-03T04:34:21.495Z,0.00
2018-09-03T04:35:21.475Z,0.00
2018-09-03T04:36:21.455Z,0.00
2018-09-03T04:37:21.435Z,0.00
2018-09-03T04:38:21.413Z,0.00
2018-09-03T04:39:21.392Z,0.00
2018-09-03T04:40:21.372Z,0.00
2018-09-03T04:41:21.353Z,0.00
2018-09-03T04:42:21.330Z,0.00
2018-09-03T04:43:21.310Z,0.00
2018-09-03T04:44:22.040Z,0.00
2018-09-03T04:45:21.269Z,0.00
2018-09-03T04:46:21.247Z,0.00
2018-09-03T04:47:21.227Z,0.00
2018-09-03T04:48:21.207Z,0.00
2018-09-03T04:49:21.187Z,0.00
2018-09-03T04:50:21.165Z,0.00
2018-09-03T04:51:21.144Z,0.00
2018-09-03T04:52:21.124Z,0.00
2018-09-03T04:53:21.103Z,0.00
2018-09-03T04:54:21.087Z,0.00
2018-09-03T04:55:21.115Z,0.00
2018-09-03T04:56:21.042Z,0.00
2018-09-03T04:57:21.026Z,0.00
2018-09-03T04:58:21.000Z,0.00
2018-09-03T04:59:20.980Z,0.00
2018-09-03T05:00:20.959Z,0.00
2018-09-03T05:01:20.938Z,0.00
2018-09-03T05:02:20.917Z,0.00
2018-09-03T05:03:20.895Z,0.00
2018-09-03T05:04:20.877Z,5.63
2018-09-03T05:05:20.872Z,0.00
2018-09-03T05:06:20.832Z,0.00
2018-09-03T05:07:20.811Z,0.00
2018-09-03T05:08:20.794Z,5.63
2018-09-03T05:09:20.771Z,5.63
2018-09-03T05:10:20.753Z,5.63
2018-09-03T05:11:20.729Z,5.63
2018-09-03T05:12:20.710Z,5.63
2018-09-03T05:13:20.688Z,5.63
2018-09-03T05:14:20.665Z,5.63
2018-09-03T05:15:20.646Z,5.63
2018-09-03T05:16:20.625Z,11.25
2018-09-03T05:17:20.604Z,11.25
2018-09-03T05:18:20.583Z,11.25
2018-09-03T05:19:20.563Z,11.25
2018-09-03T05:20:22.043Z,11.25
2018-09-03T05:21:20.522Z,11.25
2018-09-03T05:22:20.501Z,11.25
2018-09-03T05:23:20.480Z,11.25
2018-09-03T05:24:20.460Z,11.25
2018-09-03T05:25:20.439Z,11.25
2018-09-03T05:26:21.918Z,11.25
2018-09-03T05:27:20.397Z,11.25
2018-09-03T05:28:20.378Z,11.25
2018-09-03T05:29:20.356Z,11.25
2018-09-03T05:30:20.334Z,16.88
2018-09-03T05:31:20.448Z,16.88
2018-09-03T05:32:20.293Z,16.88
2018-09-03T05:33:20.272Z,16.88
2018-09-03T05:34:20.252Z,16.88
2018-09-03T05:35:20.230Z,16.88
2018-09-03T05:36:20.211Z,16.88
2018-09-03T05:37:20.190Z,16.88
2018-09-03T05:38:20.169Z,16.88
2018-09-03T05:39:20.147Z,16.88
2018-09-03T05:40:20.127Z,16.88
2018-09-03T05:41:20.107Z,16.88
2018-09-03T05:42:20.088Z,16.88
2018-09-03T05:43:20.239Z,16.88
2018-09-03T05:44:20.050Z,16.88
2018-09-03T05:45:20.025Z,22.50
2018-09-03T05:46:20.003Z,22.50
2018-09-03T05:47:19.983Z,28.13
2018-09-03T05:48:19.963Z,28.13
2018-09-03T05:49:19.942Z,28.13
2018-09-03T05:50:19.986Z,28.13
2018-09-03T05:51:19.902Z,28.13
2018-09-03T05:52:19.880Z,28.13
2018-09-03T05:53:19.860Z,28.13
2018-09-03T05:54:19.840Z,28.13
2018-09-03T05:55:19.818Z,33.75
2018-09-03T05:56:19.799Z,33.75
2018-09-03T05:57:19.782Z,33.75
2018-09-03T05:58:19.757Z,33.75
2018-09-03T05:59:19.738Z,33.75
2018-09-03T06:00:19.721Z,33.75
2018-09-03T06:01:19.699Z,39.38
2018-09-03T06:02:19.675Z,39.38
2018-09-03T06:03:19.655Z,39.38
2018-09-03T06:04:19.639Z,45.00
2018-09-03T06:05:19.617Z,45.00
2018-09-03T06:06:19.594Z,45.00
2018-09-03T06:07:19.574Z,50.63
2018-09-03T06:08:19.554Z,50.63
2018-09-03T06:09:19.537Z,50.63
2018-09-03T06:10:19.518Z,50.63
2018-09-03T06:11:19.494Z,50.63
2018-09-03T06:12:19.472Z,50.63
2018-09-03T06:13:19.453Z,50.63
2018-09-03T06:14:19.430Z,50.63
2018-09-03T06:15:19.410Z,45.00
2018-09-03T06:16:19.390Z,45.00
2018-09-03T06:17:19.370Z,45.00
2018-09-03T06:18:19.351Z,45.00
2018-09-03T06:19:19.329Z,50.63
2018-09-03T06:20:19.309Z,56.25
2018-09-03T06:21:19.289Z,56.25
2018-09-03T06:22:19.270Z,61.88
2018-09-03T06:23:19.249Z,56.25
2018-09-03T06:24:19.229Z,61.88
2018-09-03T06:25:19.210Z,61.88
2018-09-03T06:26:19.188Z,61.88
2018-09-03T06:27:19.170Z,61.88
2018-09-03T06:28:19.153Z,61.88
2018-09-03T06:29:19.129Z,61.88
2018-09-03T06:30:19.110Z,61.88
2018-09-03T06:31:19.089Z,67.50
2018-09-03T06:32:19.069Z,67.50
2018-09-03T06:33:19.052Z,67.50
2018-09-03T06:34:19.030Z,73.13
2018-09-03T06:35:19.009Z,73.13
2018-09-03T06:36:18.991Z,78.75
2018-09-03T06:37:19.043Z,78.75
2018-09-03T06:38:18.952Z,84.38
2018-09-03T06:39:18.955Z,90.00
2018-09-03T06:40:18.910Z,95.63
2018-09-03T06:41:18.890Z,101.25
2018-09-03T06:42:18.870Z,106.88
2018-09-03T06:43:18.850Z,106.88
2018-09-03T06:44:18.830Z,112.50
2018-09-03T06:45:18.811Z,112.50
2018-09-03T06:46:18.798Z,118.13
2018-09-03T06:47:18.773Z,123.75
2018-09-03T06:48:18.752Z,123.75
2018-09-03T06:49:18.732Z,123.75
2018-09-03T06:50:18.713Z,123.75
2018-09-03T06:51:18.693Z,129.38
2018-09-03T06:52:18.673Z,129.38
2018-09-03T06:53:18.654Z,135.00
2018-09-03T06:54:18.634Z,135.00
2018-09-03T06:55:18.615Z,129.38
2018-09-03T06:56:18.595Z,129.38
2018-09-03T06:57:18.577Z,135.00
2018-09-03T06:58:18.556Z,135.00
2018-09-03T06:59:18.539Z,129.38
2018-09-03T07:00:18.519Z,129.38
2018-09-03T07:01:18.499Z,123.75
2018-09-03T07:02:18.479Z,112.50
2018-09-03T07:03:18.459Z,101.25
2018-09-03T07:04:18.440Z,90.00
2018-09-03T07:05:18.421Z,78.75
2018-09-03T07:06:18.401Z,67.50
2018-09-03T07:07:18.385Z,67.50
2018-09-03T07:08:19.115Z,67.50
2018-09-03T07:09:18.344Z,73.13
2018-09-03T07:10:18.324Z,78.75
2018-09-03T07:11:18.305Z,84.38
2018-09-03T07:12:18.286Z,95.63
2018-09-03T07:13:18.268Z,101.25
2018-09-03T07:14:18.247Z,106.88
2018-09-03T07:15:18.228Z,106.88
2018-09-03T07:16:18.209Z,101.25
2018-09-03T07:17:18.191Z,95.63
2018-09-03T07:18:18.171Z,84.38
2018-09-03T07:19:18.153Z,78.75
2018-09-03T07:20:18.132Z,73.13
2018-09-03T07:21:18.114Z,73.13
2018-09-03T07:22:18.094Z,67.50
2018-09-03T07:23:18.076Z,67.50
2018-09-03T07:24:18.057Z,73.13
2018-09-03T07:25:18.046Z,73.13
2018-09-03T07:26:18.019Z,73.13
2018-09-03T07:27:18.000Z,67.50
2018-09-03T07:28:17.980Z,67.50
2018-09-03T07:29:17.963Z,61.88
2018-09-03T07:30:17.941Z,61.88
2018-09-03T07:31:17.923Z,67.50
2018-09-03T07:32:17.904Z,67.50
2018-09-03T07:33:17.884Z,67.50
2018-09-03T07:34:17.866Z,73.13
2018-09-03T07:35:17.851Z,73.13
2018-09-03T07:36:17.835Z,78.75
2018-09-03T07:37:17.807Z,78.75
2018-09-03T07:38:17.787Z,84.38
2018-09-03T07:39:17.771Z,84.38
2018-09-03T07:40:20.003Z,78.75
2018-09-03T07:41:17.729Z,73.13
2018-09-03T07:42:17.711Z,78.75
2018-09-03T07:43:17.690Z,67.50
2018-09-03T07:44:17.683Z,73.13
2018-09-03T07:45:17.652Z,73.13
2018-09-03T07:46:17.631Z,73.13
2018-09-03T07:47:17.612Z,73.13
2018-09-03T07:48:17.593Z,73.13
2018-09-03T07:49:17.573Z,73.13
2018-09-03T07:50:17.553Z,67.50
2018-09-03T07:51:17.537Z,67.50
2018-09-03T07:52:17.516Z,61.88
2018-09-03T07:53:17.501Z,61.88
2018-09-03T07:54:17.475Z,61.88
2018-09-03T07:55:17.456Z,67.50
2018-09-03T07:56:17.436Z,67.50
2018-09-03T07:57:17.418Z,67.50
2018-09-03T07:58:17.397Z,67.50
2018-09-03T07:59:17.378Z,67.50
2018-09-03T08:00:17.358Z,73.13
2018-09-03T08:01:17.351Z,73.13
2018-09-03T08:02:17.318Z,73.13
2018-09-03T08:03:17.299Z,73.13
2018-09-03T08:04:17.280Z,73.13
2018-09-03T08:05:17.264Z,73.13
2018-09-03T08:06:17.239Z,73.13
2018-09-03T08:07:17.249Z,78.75
2018-09-03T08:08:17.200Z,78.75
2018-09-03T08:09:17.185Z,84.38
2018-09-03T08:10:17.161Z,84.38
2018-09-03T08:11:17.141Z,84.38
2018-09-03T08:12:17.122Z,84.38
2018-09-03T08:13:17.102Z,84.38
2018-09-03T08:14:17.082Z,90.00
2018-09-03T08:15:17.063Z,90.00
2018-09-03T08:16:17.044Z,90.00
2018-09-03T08:17:17.024Z,95.63
2018-09-03T08:18:17.003Z,95.63
2018-09-03T08:19:16.986Z,101.25
2018-09-03T08:20:16.965Z,101.25
2018-09-03T08:21:16.945Z,106.88
2018-09-03T08:22:16.926Z,106.88
2018-09-03T08:23:16.910Z,106.88
2018-09-03T08:24:16.887Z,112.50
2018-09-03T08:25:16.867Z,112.50
2018-09-03T08:26:16.847Z,112.50
2018-09-03T08:27:16.828Z,112.50
2018-09-03T08:28:16.808Z,112.50
2018-09-03T08:29:16.789Z,112.50
2018-09-03T08:30:16.883Z,112.50
2018-09-03T08:31:16.750Z,112.50
2018-09-03T08:32:16.731Z,112.50
2018-09-03T08:33:16.712Z,112.50
2018-09-03T08:34:16.691Z,112.50
2018-09-03T08:35:16.672Z,112.50
2018-09-03T08:36:16.653Z,112.50
2018-09-03T08:37:16.637Z,112.50
2018-09-03T08:38:16.615Z,112.50
2018-09-03T08:39:16.596Z,112.50
2018-09-03T08:40:16.576Z,112.50
2018-09-03T08:41:16.559Z,118.13
2018-09-03T08:42:16.538Z,118.13
2018-09-03T08:43:16.518Z,118.13
2018-09-03T08:44:18.000Z,118.13
2018-09-03T08:45:16.479Z,118.13
2018-09-03T08:46:16.461Z,123.75
2018-09-03T08:47:16.441Z,129.38
2018-09-03T08:48:16.421Z,135.00
2018-09-03T08:49:16.403Z,135.00
2018-09-03T08:50:17.142Z,146.25
2018-09-03T08:51:16.363Z,151.88
2018-09-03T08:52:16.344Z,157.50
2018-09-03T08:53:16.325Z,151.88
2018-09-03T08:54:16.305Z,146.25
2018-09-03T08:55:16.290Z,140.63
2018-09-03T08:56:16.273Z,140.63
2018-09-03T08:57:16.250Z,140.63
2018-09-03T08:58:16.284Z,135.00
2018-09-03T08:59:16.213Z,135.00
2018-09-03T09:00:16.193Z,135.00
2018-09-03T09:01:16.925Z,135.00
2018-09-03T09:02:16.152Z,135.00
2018-09-03T09:03:16.134Z,135.00
2018-09-03T09:04:16.115Z,151.88
2018-09-03T09:05:16.100Z,163.13
2018-09-03T09:06:16.078Z,180.00
2018-09-03T09:07:16.058Z,191.25
2018-09-03T09:08:16.040Z,208.13
2018-09-03T09:09:16.021Z,219.38
2018-09-03T09:10:16.001Z,230.63
2018-09-03T09:11:15.983Z,241.88
2018-09-03T09:12:16.027Z,247.50
2018-09-03T09:13:15.945Z,247.50
2018-09-03T09:14:15.926Z,247.50
2018-09-03T09:15:15.907Z,247.50
2018-09-03T09:16:15.888Z,241.88
2018-09-03T09:17:15.873Z,241.88
2018-09-03T09:18:15.853Z,230.63
2018-09-03T09:19:15.833Z,230.63
2018-09-03T09:20:15.817Z,230.63
2018-09-03T09:21:15.796Z,236.25
2018-09-03T09:22:15.777Z,236.25
2018-09-03T09:23:15.761Z,241.88
2018-09-03T09:24:15.742Z,241.88
2018-09-03T09:25:15.729Z,241.88
2018-09-03T09:26:15.705Z,241.88
2018-09-03T09:27:15.691Z,241.88
2018-09-03T09:28:15.669Z,241.88
2018-09-03T09:29:15.651Z,241.88
2018-09-03T09:30:15.631Z,247.50
2018-09-03T09:31:15.612Z,253.13
2018-09-03T09:32:15.596Z,253.13
2018-09-03T09:33:15.602Z,258.75
2018-09-03T09:34:15.559Z,258.75
2018-09-03T09:35:15.570Z,264.38
2018-09-03T09:36:15.523Z,270.00
2018-09-03T09:37:15.519Z,281.25
2018-09-03T09:38:15.486Z,292.50
2018-09-03T09:39:15.469Z,303.75
2018-09-03T09:40:15.454Z,303.75
2018-09-03T09:41:15.433Z,298.13
2018-09-03T09:42:15.415Z,298.13
2018-09-03T09:43:15.400Z,298.13
2018-09-03T09:44:15.430Z,298.13
2018-09-03T09:45:15.365Z,303.75
2018-09-03T09:46:15.344Z,303.75
2018-09-03T09:47:15.326Z,309.38
2018-09-03T09:48:15.311Z,309.38
2018-09-03T09:49:15.291Z,309.38
2018-09-03T09:50:15.272Z,309.38
2018-09-03T09:51:15.255Z,309.38
2018-09-03T09:52:15.239Z,309.38
2018-09-03T09:53:15.222Z,315.00
2018-09-03T09:54:15.203Z,309.38
2018-09-03T09:55:15.186Z,315.00
2018-09-03T09:56:15.169Z,315.00
2018-09-03T09:57:15.152Z,320.63
2018-09-03T09:58:15.135Z,326.25
2018-09-03T09:59:15.117Z,331.88
2018-09-03T10:00:15.104Z,331.88
2018-09-03T10:01:15.084Z,331.88
2018-09-03T10:02:15.066Z,331.88
2018-09-03T10:03:15.050Z,326.25
2018-09-03T10:04:15.054Z,326.25
2018-09-03T10:05:15.020Z,320.63
2018-09-03T10:06:14.998Z,320.63
2018-09-03T10:07:14.984Z,320.63
2018-09-03T10:08:14.965Z,320.63
2018-09-03T10:09:14.953Z,326.25
2018-09-03T10:10:14.931Z,326.25
2018-09-03T10:11:14.915Z,326.25
2018-09-03T10:12:14.899Z,326.25
2018-09-03T10:13:14.882Z,326.25
2018-09-03T10:14:14.867Z,320.63
2018-09-03T10:15:14.849Z,320.63
2018-09-03T10:16:14.834Z,326.25
2018-09-03T10:17:14.817Z,331.88
2018-09-03T10:18:14.800Z,343.13
2018-09-03T10:19:14.784Z,348.75
2018-09-03T10:20:14.769Z,343.13
2018-09-03T10:21:14.752Z,343.13
2018-09-03T10:22:14.735Z,337.50
2018-09-03T10:23:14.720Z,337.50
2018-09-03T10:24:14.704Z,337.50
2018-09-03T10:25:14.738Z,343.13
2018-09-03T10:26:14.720Z,348.75
2018-09-03T10:27:14.655Z,360.00
2018-09-03T10:28:14.640Z,360.00
2018-09-03T10:29:14.626Z,354.38
2018-09-03T10:30:14.608Z,343.13
2018-09-03T10:31:18.346Z,343.13
2018-09-03T10:32:14.576Z,348.75
2018-09-03T10:33:14.561Z,343.13
2018-09-03T10:34:14.547Z,337.50
2018-09-03T10:35:14.529Z,326.25
2018-09-03T10:36:14.514Z,326.25
2018-09-03T10:37:15.249Z,326.25
2018-09-03T10:38:14.551Z,331.88
2018-09-03T10:39:14.467Z,331.88
2018-09-03T10:40:14.453Z,326.25
2018-09-03T10:41:14.435Z,343.13
2018-09-03T10:42:14.419Z,348.75
2018-09-03T10:43:14.409Z,354.38
2018-09-03T10:44:14.389Z,365.63
2018-09-03T10:45:14.374Z,371.25
2018-09-03T10:46:14.356Z,365.63
2018-09-03T10:47:14.443Z,348.75
2018-09-03T10:48:14.330Z,343.13
2018-09-03T10:49:14.308Z,337.50
2018-09-03T10:50:14.292Z,326.25
2018-09-03T10:51:14.277Z,315.00
2018-09-03T10:52:14.262Z,309.38
2018-09-03T10:53:14.245Z,309.38
2018-09-03T10:54:14.230Z,281.25
2018-09-03T10:55:14.214Z,292.50
2018-09-03T10:56:14.304Z,264.38
2018-09-03T10:57:14.185Z,247.50
2018-09-03T10:58:14.166Z,241.88
2018-09-03T10:59:14.151Z,275.63
2018-09-03T11:00:14.135Z,281.25
2018-09-03T11:01:14.122Z,258.75
2018-09-03T11:02:14.103Z,253.13
2018-09-03T11:03:14.086Z,241.88
2018-09-03T11:04:14.070Z,247.50
2018-09-03T11:05:14.078Z,236.25
2018-09-03T11:06:14.038Z,236.25
2018-09-03T11:07:14.022Z,241.88
2018-09-03T11:08:14.007Z,247.50
2018-09-03T11:09:13.990Z,281.25
2018-09-03T11:10:13.973Z,298.13
2018-09-03T11:11:13.957Z,315.00
2018-09-03T11:12:13.941Z,320.63
2018-09-03T11:13:13.973Z,337.50
2018-09-03T11:14:16.225Z,348.75
2018-09-03T11:15:13.892Z,348.75
2018-09-03T11:16:13.878Z,360.00
2018-09-03T11:17:13.862Z,376.88
2018-09-03T11:18:13.845Z,365.63
2018-09-03T11:19:13.828Z,376.88
2018-09-03T11:20:13.812Z,326.25
2018-09-03T11:21:13.856Z,326.25
2018-09-03T11:22:13.825Z,309.38
2018-09-03T11:23:13.764Z,309.38
2018-09-03T11:24:13.748Z,270.00
2018-09-03T11:25:13.734Z,247.50
2018-09-03T11:26:13.717Z,236.25
2018-09-03T11:27:13.702Z,225.00
2018-09-03T11:28:13.685Z,230.63
2018-09-03T11:29:13.670Z,264.38
2018-09-03T11:30:13.655Z,236.25
2018-09-03T11:31:15.140Z,225.00
2018-09-03T11:32:13.622Z,225.00
2018-09-03T11:33:13.605Z,225.00
2018-09-03T11:34:13.590Z,236.25
2018-09-03T11:35:13.575Z,247.50
2018-09-03T11:36:13.558Z,253.13
2018-09-03T11:37:16.546Z,270.00
2018-09-03T11:38:13.526Z,286.88
2018-09-03T11:39:13.510Z,298.13
2018-09-03T11:40:13.494Z,281.25
2018-09-03T11:41:13.478Z,281.25
2018-09-03T11:42:13.461Z,292.50
2018-09-03T11:43:13.449Z,298.13
2018-09-03T11:44:13.430Z,315.00
2018-09-03T11:45:13.415Z,343.13
2018-09-03T11:46:13.397Z,343.13
2018-09-03T11:47:13.434Z,337.50
2018-09-03T11:48:13.367Z,343.13
2018-09-03T11:49:13.352Z,348.75
2018-09-03T11:50:13.336Z,354.38
2018-09-03T11:51:13.320Z,360.00
2018-09-03T11:52:13.306Z,360.00
2018-09-03T11:53:13.288Z,360.00
2018-09-03T11:54:13.271Z,371.25
2018-09-03T11:55:13.256Z,388.13
2018-09-03T11:56:13.240Z,393.75
2018-09-03T11:57:13.226Z,393.75
2018-09-03T11:58:13.209Z,388.13
2018-09-03T11:59:13.195Z,388.13
2018-09-03T12:00:13.177Z,388.13
2018-09-03T12:01:13.162Z,399.38
2018-09-03T12:02:13.147Z,399.38
2018-09-03T12:03:13.132Z,393.75
2018-09-03T12:04:13.116Z,399.38
2018-09-03T12:05:13.105Z,405.00
2018-09-03T12:06:13.086Z,416.25
2018-09-03T12:07:13.072Z,427.50
2018-09-03T12:08:13.080Z,433.13
2018-09-03T12:09:13.043Z,438.75
2018-09-03T12:10:13.026Z,444.38
2018-09-03T12:11:13.011Z,444.38
2018-09-03T12:12:12.997Z,444.38
2018-09-03T12:13:12.982Z,427.50
2018-09-03T12:14:12.966Z,416.25
2018-09-03T12:15:12.952Z,410.63
2018-09-03T12:16:12.942Z,416.25
2018-09-03T12:17:12.925Z,410.63
2018-09-03T12:18:12.908Z,427.50
2018-09-03T12:19:12.894Z,427.50
2018-09-03T12:20:12.879Z,444.38
2018-09-03T12:21:12.891Z,438.75
2018-09-03T12:22:12.851Z,421.88
2018-09-03T12:23:12.837Z,421.88
2018-09-03T12:24:12.822Z,427.50
2018-09-03T12:25:12.808Z,438.75
2018-09-03T12:26:12.793Z,450.00
2018-09-03T12:27:12.779Z,450.00
2018-09-03T12:28:12.765Z,444.38
2018-09-03T12:29:12.753Z,438.75
2018-09-03T12:30:12.738Z,427.50
2018-09-03T12:31:12.763Z,416.25
2018-09-03T12:32:12.710Z,405.00
2018-09-03T12:33:12.697Z,399.38
2018-09-03T12:34:12.682Z,382.50
2018-09-03T12:35:12.667Z,382.50
2018-09-03T12:36:12.656Z,393.75
2018-09-03T12:37:12.640Z,388.13
2018-09-03T12:38:12.626Z,393.75
2018-09-03T12:39:12.612Z,393.75
2018-09-03T12:40:12.599Z,388.13
2018-09-03T12:41:12.587Z,388.13
2018-09-03T12:42:12.571Z,388.13
2018-09-03T12:43:12.557Z,376.88
2018-09-03T12:44:12.543Z,354.38
2018-09-03T12:45:12.530Z,337.50
2018-09-03T12:46:12.550Z,331.88
2018-09-03T12:47:12.502Z,343.13
2018-09-03T12:48:12.489Z,348.75
2018-09-03T12:49:12.478Z,343.13
2018-09-03T12:50:14.024Z,348.75
2018-09-03T12:51:12.493Z,343.13
2018-09-03T12:52:12.431Z,354.38
2018-09-03T12:53:12.419Z,360.00